Airfield :
LOGIN :

Register | Disclaimer

   EN    FR    IT 

 










Legend :    VFR   Marginal VFR   IFR   Intensive IFR   Very Intensive IFR
Visi :
Ceiling :
>= 8 km
>= 3000ft
5 to 8 km
1000 to 3000 ft
1500m to 5 km
500 to 1000 ft
800 to 1500m
200 to 500 ft
< 800m
< 200 ft
Symbols :   Thunderstorms  Fog  Heavy snow  Heavy precipitations  Wind > 20 kt
SIGMETs :     Misc.  Thunderstorms  Icing  Turbulence  Mountain Waves  Volcanic Ashes






- Airport Elevation : 459 ft
- IATA code : CER


LFRC - Cherbourg / Maupertus

CURRENT METAR :
  • 211030Z AUTO 29010KT 260V330 9999 OVC007 17/15 Q1013 BECMG BKN020

EXPIRED METARs :
  • 211000Z AUTO 29010KT 270V330 9999 OVC007 17/15 Q1013 BECMG BKN020
  • 210930Z AUTO 29010KT 270V330 9999 OVC006 16/15 Q1012 BECMG BKN020
  • 210900Z AUTO 30009KT 270V330 9999 OVC005 16/15 Q1012 NOSIG
  • 210830Z AUTO 30010KT 9999 OVC006 16/15 Q1012 TEMPO BKN004
  • 210800Z AUTO 30011KT 260V330 9999 OVC004 16/15 Q1012 BECMG BKN012
  • 210730Z AUTO 30011KT 270V330 9999 OVC005 16/15 Q1011 BECMG BKN012
  • 210700Z AUTO 30010KT 9999 OVC004 16/15 Q1011 TEMPO 4000 -DZ BR BECMG BKN012
  • 210630Z AUTO 30008KT 9999 OVC005 16/15 Q1011 TEMPO 4000 -DZ BR BECMG BKN012
  • 210600Z AUTO 30008KT 9999 BKN005 BKN034 OVC041 15/15 Q1010 BECMG 4000 -DZ BR

TAF TAF LFRC
Valid from the 21 at 09:00 until the 21 at 18:00 UTC


210800Z 2109/2118 30010KT 9999 BKN011
TEMPO 2109/2111 BKN004
BECMG 2111/2113 BKN020



MET'MAP, your aeronautical weather chart ! - Copyright ORBIFLY December 2007 - Disclaimer

ORBIFLY MET'MAP TEAM :

Programming & Development : Alexandra Zaïnal
Original concept : Baudouin d'Aumeries
Technical & hardware support : Manuel Goepfert
Assistance : Marc-Olivier Méhu




SOURCES & CREDITS :

   NOAA